createdAt,value
2022-08-23T00:01:31.264Z,99.90
2022-08-23T00:04:04.838Z,99.90
2022-08-23T00:06:32.514Z,99.90
2022-08-23T00:08:59.608Z,99.90
2022-08-23T00:11:38.177Z,99.90
2022-08-23T00:14:15.539Z,99.90
2022-08-23T00:16:42.575Z,99.90
2022-08-23T00:19:11.550Z,99.90
2022-08-23T00:21:38.578Z,99.90
2022-08-23T00:24:07.387Z,99.90
2022-08-23T00:27:01.392Z,99.90
2022-08-23T00:29:55.973Z,99.90
2022-08-23T00:32:29.185Z,99.90
2022-08-23T00:34:56.382Z,99.90
2022-08-23T00:37:23.742Z,99.90
2022-08-23T00:39:51.198Z,99.90
2022-08-23T00:42:42.504Z,99.90
2022-08-23T00:45:29.531Z,99.90
2022-08-23T00:47:57.777Z,99.90
2022-08-23T00:50:48.715Z,99.90
2022-08-23T00:53:21.461Z,99.90
2022-08-23T00:55:52.108Z,99.90
2022-08-23T00:58:21.073Z,99.90
2022-08-23T01:00:51.585Z,99.90
2022-08-23T01:03:20.541Z,99.90
2022-08-23T01:06:07.771Z,99.90
2022-08-23T01:08:36.453Z,99.90
2022-08-23T01:11:28.890Z,99.90
2022-08-23T01:14:03.825Z,99.90
2022-08-23T01:16:37.024Z,99.90
2022-08-23T01:19:13.374Z,99.90
2022-08-23T01:21:53.123Z,99.90
2022-08-23T01:24:59.610Z,99.90
2022-08-23T01:27:12.311Z,99.90
2022-08-23T01:29:40.727Z,99.90
2022-08-23T01:32:09.027Z,99.90
2022-08-23T01:34:36.890Z,99.90
2022-08-23T01:37:11.536Z,99.90
2022-08-23T01:39:38.385Z,99.90
2022-08-23T01:42:07.750Z,99.90
2022-08-23T01:44:34.929Z,99.90
2022-08-23T01:47:01.751Z,99.90
2022-08-23T01:49:28.484Z,99.90
2022-08-23T01:51:55.444Z,99.90
2022-08-23T01:54:22.207Z,99.90
2022-08-23T01:56:49.124Z,99.90
2022-08-23T01:59:16.010Z,99.90
2022-08-23T02:01:43.114Z,99.90
2022-08-23T02:04:09.843Z,99.90
2022-08-23T02:06:36.506Z,99.90
2022-08-23T02:09:17.427Z,99.90
2022-08-23T02:11:46.008Z,99.90
2022-08-23T02:14:15.654Z,99.90
2022-08-23T02:16:58.116Z,99.90
2022-08-23T02:19:31.397Z,99.90
2022-08-23T02:21:58.178Z,99.90
2022-08-23T02:58:57.783Z,99.90
2022-08-23T03:01:31.423Z,99.90
2022-08-23T03:04:00.196Z,99.90
2022-08-23T03:06:27.812Z,99.90
2022-08-23T03:08:56.430Z,99.90
2022-08-23T03:11:24.921Z,99.90
2022-08-23T03:13:53.386Z,99.90
2022-08-23T03:16:20.296Z,99.90
2022-08-23T03:18:47.692Z,99.90
2022-08-23T03:21:14.839Z,99.90
2022-08-23T03:23:41.806Z,99.90
2022-08-23T03:26:11.683Z,99.90
2022-08-23T03:28:39.991Z,99.90
2022-08-23T03:31:07.994Z,99.90
2022-08-23T03:33:35.503Z,99.90
2022-08-23T03:36:04.667Z,99.90
2022-08-23T03:38:31.431Z,99.90
2022-08-23T03:40:58.320Z,99.90
2022-08-23T03:43:24.986Z,99.90
2022-08-23T03:45:52.015Z,99.90
2022-08-23T03:48:18.830Z,99.90
2022-08-23T03:50:45.875Z,99.90
2022-08-23T03:53:12.941Z,99.90
2022-08-23T03:55:42.493Z,99.90
2022-08-23T03:58:10.759Z,99.90
2022-08-23T04:00:37.649Z,99.90
2022-08-23T04:03:04.787Z,99.90
2022-08-23T04:05:31.543Z,99.90
2022-08-23T04:07:58.398Z,99.90
2022-08-23T04:10:25.542Z,99.90
2022-08-23T04:12:54.670Z,99.90
2022-08-23T04:15:21.742Z,99.90
2022-08-23T04:17:48.576Z,99.90
2022-08-23T04:20:15.612Z,99.90
2022-08-23T04:22:42.294Z,99.90
2022-08-23T04:25:16.278Z,99.90
2022-08-23T04:27:58.085Z,99.90
2022-08-23T04:30:25.479Z,99.90
2022-08-23T04:32:52.723Z,99.90
2022-08-23T04:35:19.530Z,99.90
2022-08-23T04:37:46.351Z,99.90
2022-08-23T04:40:31.993Z,99.90
2022-08-23T04:42:58.839Z,99.90
2022-08-23T04:45:27.064Z,99.90
2022-08-23T04:47:54.037Z,99.90
2022-08-23T04:50:21.721Z,99.90
2022-08-23T04:52:48.420Z,99.90
2022-08-23T04:55:15.306Z,99.90
2022-08-23T04:57:42.622Z,99.90
2022-08-23T05:00:14.718Z,99.90
2022-08-23T05:02:41.695Z,99.90
2022-08-23T05:05:11.200Z,99.90
2022-08-23T05:07:42.407Z,99.90
2022-08-23T05:10:13.202Z,99.90
2022-08-23T05:12:40.558Z,99.90
2022-08-23T05:15:09.406Z,99.90
2022-08-23T05:17:36.855Z,99.90
2022-08-23T05:20:08.147Z,99.90
2022-08-23T05:22:36.254Z,99.90
2022-08-23T05:25:03.078Z,99.90
2022-08-23T05:27:30.149Z,99.90
2022-08-23T05:29:56.955Z,99.90
2022-08-23T05:32:24.563Z,99.90
2022-08-23T05:34:51.292Z,99.90
2022-08-23T05:37:18.215Z,99.90
2022-08-23T05:39:45.103Z,99.90
2022-08-23T05:42:14.858Z,99.90
2022-08-23T05:44:42.642Z,99.90
2022-08-23T05:47:12.551Z,99.90
2022-08-23T05:49:42.486Z,99.90
2022-08-23T05:52:12.022Z,99.90
2022-08-23T05:54:39.343Z,99.90
2022-08-23T05:57:06.259Z,99.90
2022-08-23T05:59:32.940Z,99.90
2022-08-23T06:01:59.647Z,99.90
2022-08-23T06:04:26.337Z,99.90
2022-08-23T06:06:56.603Z,99.90
2022-08-23T06:09:24.459Z,99.90
2022-08-23T06:11:51.215Z,99.90
2022-08-23T06:14:17.989Z,99.90
2022-08-23T06:16:47.620Z,99.90
2022-08-23T06:19:15.361Z,99.90
2022-08-23T06:21:43.455Z,99.90
2022-08-23T06:24:10.727Z,99.90
2022-08-23T06:26:41.410Z,99.90
2022-08-23T06:29:15.311Z,99.90
2022-08-23T06:31:48.913Z,99.90
2022-08-23T06:34:18.516Z,99.90
2022-08-23T06:36:49.427Z,99.90
2022-08-23T06:39:17.784Z,99.90
2022-08-23T06:41:45.671Z,99.90
2022-08-23T06:44:12.564Z,99.90
2022-08-23T06:46:40.802Z,99.90
2022-08-23T06:49:08.682Z,99.90
2022-08-23T06:51:43.359Z,99.90
2022-08-23T06:54:13.259Z,99.90
2022-08-23T06:56:41.971Z,99.90
2022-08-23T06:59:09.404Z,99.90
2022-08-23T07:01:46.837Z,99.90
2022-08-23T07:04:16.631Z,99.90
2022-08-23T07:06:44.655Z,99.90
2022-08-23T07:09:12.452Z,99.90
2022-08-23T07:11:39.379Z,99.90
2022-08-23T07:14:10.839Z,99.90
2022-08-23T07:16:45.252Z,99.90
2022-08-23T07:19:12.999Z,99.90
2022-08-23T07:21:48.655Z,99.90
2022-08-23T07:24:17.587Z,99.90
2022-08-23T07:26:46.626Z,99.90
2022-08-23T07:29:14.716Z,99.90
2022-08-23T07:31:47.477Z,99.90
2022-08-23T07:34:15.495Z,99.90
2022-08-23T07:36:44.514Z,99.90
2022-08-23T07:39:12.727Z,99.90
2022-08-23T07:41:39.775Z,99.90
2022-08-23T07:44:09.243Z,99.90
2022-08-23T07:46:38.605Z,99.90
2022-08-23T07:49:06.263Z,99.90
2022-08-23T07:51:39.067Z,99.90
2022-08-23T07:54:09.645Z,99.90
2022-08-23T07:56:37.103Z,99.90
2022-08-23T07:59:06.550Z,99.90
2022-08-23T08:01:33.736Z,99.90
2022-08-23T08:04:02.634Z,99.90
2022-08-23T08:06:32.242Z,99.90
2022-08-23T08:08:59.178Z,99.90
2022-08-23T08:11:34.533Z,99.90
2022-08-23T08:14:07.409Z,99.90
2022-08-23T08:16:36.710Z,99.90
2022-08-23T08:19:07.867Z,99.90
2022-08-23T08:21:35.980Z,99.90
2022-08-23T08:24:07.762Z,99.90
2022-08-23T08:26:35.203Z,99.90
2022-08-23T08:29:02.188Z,99.90
2022-08-23T08:31:28.984Z,99.90
2022-08-23T08:33:55.864Z,99.90
2022-08-23T08:36:36.335Z,99.90
2022-08-23T08:39:06.865Z,99.90
2022-08-23T08:41:44.061Z,99.90
2022-08-23T08:44:37.039Z,99.90
2022-08-23T08:47:13.900Z,99.90
2022-08-23T08:49:49.067Z,99.90
2022-08-23T08:52:32.280Z,99.90
2022-08-23T08:55:10.673Z,99.90
2022-08-23T08:57:44.942Z,99.90
2022-08-23T09:00:15.675Z,99.90
2022-08-23T09:02:42.966Z,99.90
2022-08-23T09:05:14.610Z,99.90
2022-08-23T09:08:09.727Z,99.90
2022-08-23T09:10:58.564Z,99.90
2022-08-23T09:13:48.763Z,99.90
2022-08-23T09:16:30.738Z,99.90
2022-08-23T09:18:57.871Z,99.90
2022-08-23T09:21:25.112Z,99.90
2022-08-23T09:24:00.274Z,99.90
2022-08-23T09:26:30.584Z,99.90
2022-08-23T09:29:20.787Z,99.90
2022-08-23T09:32:02.091Z,99.90
2022-08-23T09:34:36.067Z,99.90
2022-08-23T09:37:18.946Z,99.90
2022-08-23T09:39:54.179Z,99.90
2022-08-23T09:42:29.511Z,99.90
2022-08-23T09:44:57.165Z,99.90
2022-08-23T09:47:46.838Z,99.90
2022-08-23T09:50:26.199Z,99.90
2022-08-23T09:53:04.789Z,99.90
2022-08-23T09:55:45.213Z,99.90
2022-08-23T09:58:32.241Z,99.90
2022-08-23T10:01:19.212Z,99.90
2022-08-23T10:03:46.836Z,99.90
2022-08-23T10:06:31.063Z,99.90
2022-08-23T10:09:03.616Z,99.90
2022-08-23T10:11:31.186Z,99.90
2022-08-23T10:13:57.911Z,99.90
2022-08-23T10:16:50.527Z,99.90
2022-08-23T10:19:23.806Z,99.90
2022-08-23T10:22:11.763Z,99.90
2022-08-23T10:24:52.096Z,99.90
2022-08-23T10:28:05.874Z,99.70
2022-08-23T10:30:59.167Z,99.60
2022-08-23T10:33:54.878Z,99.80
2022-08-23T10:36:34.503Z,98.80
2022-08-23T10:39:24.916Z,99.20
2022-08-23T10:42:06.618Z,98.60
2022-08-23T10:44:35.519Z,98.50
2022-08-23T10:47:22.454Z,98.10
2022-08-23T10:49:52.317Z,97.20
2022-08-23T10:52:40.710Z,96.30
2022-08-23T10:55:34.668Z,95.10
2022-08-23T10:58:05.256Z,94.10
2022-08-23T11:00:34.519Z,94.20
2022-08-23T11:03:43.435Z,93.70
2022-08-23T11:06:35.066Z,91.90
2022-08-23T11:09:09.040Z,91.90
2022-08-23T11:11:46.430Z,91.30
2022-08-23T11:14:34.206Z,91.20
2022-08-23T11:17:08.160Z,90.50
2022-08-23T11:20:00.413Z,92.40
2022-08-23T11:22:55.475Z,91.00
2022-08-23T11:25:22.120Z,90.90
2022-08-23T11:27:49.336Z,90.60
2022-08-23T11:30:35.182Z,91.20
2022-08-23T11:33:33.844Z,91.30
2022-08-23T11:36:09.878Z,90.40
2022-08-23T11:38:48.557Z,89.70
2022-08-23T11:41:27.634Z,90.00
2022-08-23T11:43:57.267Z,87.70
2022-08-23T11:46:27.006Z,90.30
2022-08-23T11:49:24.062Z,90.80
2022-08-23T11:52:06.080Z,87.80
2022-08-23T11:55:06.914Z,88.00
2022-08-23T11:58:11.780Z,89.00
2022-08-23T12:00:57.480Z,88.20
2022-08-23T12:03:33.774Z,87.70
2022-08-23T12:06:06.442Z,90.30
2022-08-23T12:09:01.667Z,90.10
2022-08-23T12:12:02.005Z,92.00
2022-08-23T12:14:31.497Z,87.70
2022-08-23T12:17:12.989Z,85.20
2022-08-23T12:20:18.603Z,85.50
2022-08-23T12:23:14.462Z,84.20
2022-08-23T12:25:43.011Z,87.20
2022-08-23T12:28:43.679Z,84.10
2022-08-23T12:31:32.867Z,84.60
2022-08-23T12:34:18.190Z,81.30
2022-08-23T12:37:20.866Z,86.40
2022-08-23T12:39:55.261Z,81.70
2022-08-23T12:42:29.199Z,84.00
2022-08-23T12:45:17.745Z,81.10
2022-08-23T12:47:56.468Z,81.10
2022-08-23T12:50:43.387Z,78.70
2022-08-23T12:53:16.978Z,81.30
2022-08-23T12:55:48.087Z,81.10
2022-08-23T12:58:17.681Z,83.30
2022-08-23T13:00:54.454Z,83.80
2022-08-23T13:03:30.371Z,81.10
2022-08-23T13:06:11.155Z,85.40
2022-08-23T13:08:44.066Z,82.50
2022-08-23T13:11:12.921Z,82.50
2022-08-23T13:13:42.170Z,80.40
2022-08-23T13:16:36.753Z,79.00
2022-08-23T13:19:22.291Z,78.10
2022-08-23T13:22:08.305Z,75.60
2022-08-23T13:24:39.205Z,76.90
2022-08-23T13:27:22.526Z,76.70
2022-08-23T13:30:13.948Z,75.50
2022-08-23T13:32:47.210Z,79.60
2022-08-23T13:35:25.423Z,75.20
2022-08-23T13:37:55.222Z,79.90
2022-08-23T13:40:32.243Z,75.20
2022-08-23T13:43:01.660Z,76.60
2022-08-23T13:45:35.941Z,71.00
2022-08-23T13:48:14.213Z,74.40
2022-08-23T13:50:41.590Z,72.60
2022-08-23T13:53:23.513Z,69.70
2022-08-23T13:55:55.075Z,70.70
2022-08-23T13:58:43.867Z,76.60
2022-08-23T14:01:19.002Z,70.90
2022-08-23T14:03:46.300Z,72.00
2022-08-23T14:06:13.477Z,77.40
2022-08-23T14:08:40.343Z,71.20
2022-08-23T14:11:07.529Z,73.20
2022-08-23T14:13:36.560Z,74.00
2022-08-23T14:21:43.778Z,71.20
2022-08-23T14:24:10.576Z,67.20
2022-08-23T14:26:37.507Z,71.20
2022-08-23T14:29:05.049Z,70.50
2022-08-23T14:31:32.119Z,72.00
2022-08-23T14:34:02.000Z,70.70
2022-08-23T14:36:29.975Z,73.70
2022-08-23T14:38:56.831Z,73.20
2022-08-23T14:41:27.430Z,71.80
2022-08-23T14:43:54.311Z,73.30
2022-08-23T14:46:23.038Z,69.30
2022-08-23T14:48:50.206Z,74.60
2022-08-23T14:51:28.531Z,68.60
2022-08-23T14:53:55.676Z,73.60
2022-08-23T14:56:22.491Z,68.70
2022-08-23T14:58:50.348Z,72.40
2022-08-23T15:01:19.014Z,74.60
2022-08-23T15:03:46.548Z,74.40
2022-08-23T15:06:14.773Z,73.50
2022-08-23T15:08:42.217Z,73.70
2022-08-23T15:14:00.014Z,70.60
2022-08-23T15:16:27.658Z,71.70
2022-08-23T15:18:55.774Z,73.50
2022-08-23T15:21:23.191Z,72.50
2022-08-23T15:23:49.956Z,70.40
2022-08-23T15:26:23.227Z,69.40
2022-08-23T15:28:50.452Z,70.90
2022-08-23T15:31:19.173Z,70.20
2022-08-23T15:33:46.065Z,72.10
2022-08-23T15:36:15.573Z,69.10
2022-08-23T15:38:44.012Z,69.10
2022-08-23T15:41:11.033Z,69.80
2022-08-23T15:43:39.652Z,67.90
2022-08-23T15:46:17.533Z,68.70
2022-08-23T15:49:10.760Z,69.50
2022-08-23T15:51:37.458Z,69.60
2022-08-23T15:54:04.330Z,71.10
2022-08-23T15:56:37.750Z,68.60
2022-08-23T15:59:05.047Z,69.70
2022-08-23T16:01:33.755Z,70.60
2022-08-23T16:04:02.163Z,71.00
2022-08-23T16:06:32.150Z,68.90
2022-08-23T16:09:01.495Z,69.30
2022-08-23T16:11:29.308Z,69.60
2022-08-23T16:13:56.070Z,69.80
2022-08-23T16:16:30.097Z,69.20
2022-08-23T16:18:58.361Z,69.50
2022-08-23T16:21:26.981Z,69.50
2022-08-23T16:23:55.146Z,71.00
2022-08-23T16:26:32.348Z,71.90
2022-08-23T16:29:04.410Z,73.40
2022-08-23T16:31:38.874Z,72.30
2022-08-23T16:34:11.600Z,74.30
2022-08-23T16:36:40.967Z,72.20
2022-08-23T16:39:08.635Z,74.60
2022-08-23T16:41:35.700Z,72.90
2022-08-23T16:44:02.529Z,73.90
2022-08-23T16:46:29.280Z,73.30
2022-08-23T16:48:56.169Z,73.40
2022-08-23T16:51:23.137Z,76.00
2022-08-23T16:54:02.476Z,74.10
2022-08-23T16:56:34.119Z,74.10
2022-08-23T16:59:01.869Z,75.00
2022-08-23T17:01:29.622Z,76.30
2022-08-23T17:03:56.659Z,74.80
2022-08-23T17:06:23.341Z,77.10
2022-08-23T17:08:50.230Z,77.90
2022-08-23T17:11:19.301Z,76.20
2022-08-23T17:13:47.351Z,75.40
2022-08-23T17:16:14.239Z,76.20
2022-08-23T17:18:41.438Z,75.80
2022-08-23T17:21:09.175Z,76.20
2022-08-23T17:23:40.615Z,79.20
2022-08-23T17:26:08.450Z,79.50
2022-08-23T17:28:35.290Z,81.20
2022-08-23T17:31:02.055Z,80.20
2022-08-23T17:33:28.906Z,81.30
2022-08-23T17:35:55.561Z,79.20
2022-08-23T17:38:22.302Z,80.70
2022-08-23T17:40:49.038Z,82.70
2022-08-23T17:43:15.730Z,80.20
2022-08-23T17:45:50.957Z,83.10
2022-08-23T17:48:19.428Z,83.00
2022-08-23T17:50:47.134Z,82.40
2022-08-23T17:53:15.374Z,82.50
2022-08-23T17:55:43.000Z,81.60
2022-08-23T17:58:10.137Z,83.90
2022-08-23T18:00:39.060Z,82.80
2022-08-23T18:03:06.631Z,86.70
2022-08-23T18:05:34.220Z,87.90
2022-08-23T18:08:01.668Z,86.80
2022-08-23T18:10:29.944Z,87.40
2022-08-23T18:12:57.830Z,87.90
2022-08-23T18:15:25.214Z,88.10
2022-08-23T18:17:52.275Z,89.40
2022-08-23T18:20:26.383Z,88.60
2022-08-23T18:22:54.915Z,87.30
2022-08-23T18:25:21.874Z,88.00
2022-08-23T18:28:06.777Z,88.00
2022-08-23T18:30:35.511Z,87.80
2022-08-23T18:33:02.658Z,88.60
2022-08-23T18:35:31.055Z,90.40
2022-08-23T18:37:58.219Z,90.80
2022-08-23T18:40:28.665Z,91.20
2022-08-23T18:42:55.583Z,91.40
2022-08-23T18:45:22.508Z,91.90
2022-08-23T18:47:49.463Z,91.90
2022-08-23T18:50:17.673Z,92.10
2022-08-23T18:52:44.395Z,92.50
2022-08-23T18:55:11.114Z,92.10
2022-08-23T18:57:38.915Z,92.50
2022-08-23T19:00:09.209Z,93.00
2022-08-23T19:02:35.896Z,94.00
2022-08-23T19:05:03.694Z,94.40
2022-08-23T19:07:30.590Z,95.50
2022-08-23T19:09:57.234Z,94.70
2022-08-23T19:12:24.191Z,94.50
2022-08-23T19:14:50.886Z,94.50
2022-08-23T19:17:17.554Z,94.20
2022-08-23T19:19:44.537Z,95.00
2022-08-23T19:22:12.514Z,95.40
2022-08-23T19:24:39.238Z,96.50
2022-08-23T19:27:06.311Z,96.80
2022-08-23T19:29:33.045Z,96.60
2022-08-23T19:31:59.786Z,96.90
2022-08-23T19:34:26.843Z,97.30
2022-08-23T19:37:00.886Z,96.70
2022-08-23T19:39:29.425Z,97.50
2022-08-23T19:41:56.270Z,97.70
2022-08-23T19:44:23.023Z,97.80
2022-08-23T19:46:50.059Z,98.50
2022-08-23T19:49:17.377Z,99.20
2022-08-23T19:51:44.858Z,99.20
2022-08-23T19:54:12.844Z,99.20
2022-08-23T19:56:57.273Z,99.90
2022-08-23T19:59:28.122Z,99.90
2022-08-23T20:01:55.880Z,99.90
2022-08-23T20:04:24.286Z,99.90
2022-08-23T20:06:51.794Z,99.90
2022-08-23T20:09:20.113Z,99.90
2022-08-23T20:11:46.842Z,99.90
2022-08-23T20:14:13.982Z,99.90
2022-08-23T20:16:41.957Z,99.90
2022-08-23T20:19:10.112Z,99.90
2022-08-23T20:21:37.927Z,99.90
2022-08-23T20:24:05.365Z,99.90
2022-08-23T20:26:42.382Z,99.90
2022-08-23T20:29:11.603Z,99.90
2022-08-23T20:31:47.817Z,99.90
2022-08-23T20:34:14.575Z,99.90
2022-08-23T20:36:41.234Z,99.90
2022-08-23T20:39:08.156Z,99.90
2022-08-23T20:41:37.150Z,99.90
2022-08-23T20:44:05.264Z,99.90
2022-08-23T20:46:32.070Z,99.90
2022-08-23T20:48:59.200Z,99.90
2022-08-23T20:51:28.091Z,99.90
2022-08-23T20:53:55.962Z,99.90
2022-08-23T20:56:23.427Z,99.90
2022-08-23T20:58:50.799Z,99.90
2022-08-23T21:01:18.232Z,99.90
2022-08-23T21:03:45.428Z,99.90
2022-08-23T21:06:15.150Z,99.90
2022-08-23T21:08:43.432Z,99.90
2022-08-23T21:11:11.507Z,99.90
2022-08-23T21:13:42.271Z,99.90
2022-08-23T21:16:09.419Z,99.90
2022-08-23T21:18:36.176Z,99.90
2022-08-23T21:21:03.593Z,99.90
2022-08-23T21:23:30.503Z,99.90
2022-08-23T21:25:58.038Z,99.90
2022-08-23T21:28:26.010Z,99.90
2022-08-23T21:30:53.113Z,99.90
2022-08-23T21:33:21.796Z,99.90
2022-08-23T21:35:49.063Z,99.90
2022-08-23T21:38:15.768Z,99.90
2022-08-23T21:40:42.650Z,99.90
2022-08-23T21:43:09.520Z,99.90
2022-08-23T21:45:36.194Z,99.90
2022-08-23T21:48:08.336Z,99.90
2022-08-23T21:50:35.137Z,99.90
2022-08-23T21:53:02.301Z,99.90
2022-08-23T21:55:34.427Z,99.90
2022-08-23T21:58:03.337Z,99.90
2022-08-23T22:00:30.109Z,99.90
2022-08-23T22:02:56.849Z,99.90
2022-08-23T22:05:24.038Z,99.90
2022-08-23T22:07:51.771Z,99.90
2022-08-23T22:10:18.830Z,99.90
2022-08-23T22:12:45.696Z,99.90
2022-08-23T22:15:12.908Z,99.90
2022-08-23T22:17:39.594Z,99.90
2022-08-23T22:20:08.426Z,99.90
2022-08-23T22:22:35.391Z,99.90
2022-08-23T22:25:02.415Z,99.90
2022-08-23T22:27:29.549Z,99.90
2022-08-23T22:29:56.398Z,99.90
2022-08-23T22:32:23.300Z,99.90
2022-08-23T22:34:50.127Z,99.90
2022-08-23T22:37:16.803Z,99.90
2022-08-23T22:39:43.519Z,99.90
2022-08-23T22:42:12.071Z,99.90
2022-08-23T22:44:38.735Z,99.90
2022-08-23T22:47:05.622Z,99.90
2022-08-23T22:49:32.495Z,99.90
2022-08-23T22:51:59.164Z,99.90
2022-08-23T22:54:25.862Z,99.90
2022-08-23T22:56:53.560Z,99.90
2022-08-23T22:59:22.683Z,99.90
2022-08-23T23:01:57.441Z,99.90
2022-08-23T23:04:26.266Z,99.90
2022-08-23T23:06:54.272Z,99.90
2022-08-23T23:09:21.498Z,99.90
2022-08-23T23:11:48.328Z,99.90
2022-08-23T23:14:16.975Z,99.90
2022-08-23T23:16:45.050Z,99.90
2022-08-23T23:19:30.889Z,99.90
2022-08-23T23:21:58.682Z,99.90
2022-08-23T23:24:31.635Z,99.90
2022-08-23T23:26:59.530Z,99.90
2022-08-23T23:29:27.170Z,99.90
2022-08-23T23:31:55.801Z,99.90
2022-08-23T23:34:23.713Z,99.90
2022-08-23T23:36:55.742Z,99.90
2022-08-23T23:39:22.463Z,99.90
2022-08-23T23:41:49.267Z,99.90
2022-08-23T23:44:16.139Z,99.90
2022-08-23T23:46:50.990Z,99.90
2022-08-23T23:49:17.658Z,99.90
2022-08-23T23:51:52.434Z,99.90
2022-08-23T23:54:19.318Z,99.90
2022-08-23T23:56:46.039Z,99.90
2022-08-23T23:59:13.294Z,99.90
